Time;durP1;ratioP1;P1;durP2;ratioP2;P2;SDS_P1;SDS_P2;PMS_P1;PMS_P2;Temp;Humidity;BMP_temperature;BMP_pressure;BME280_temperature;BME280_humidity;BME280_pressure;Samples;Min_cycle;Max_cycle;Signal;HPM_P1;HPM_P2
2023/11/03 00:00:11;;;;;;;16.40;11.15;;;10.30;99.90;;;;;;5014608;28;20389;-65
2023/11/03 00:02:38;;;;;;;10.75;8.80;;;10.30;99.90;;;;;;5029635;28;20067;-66
2023/11/03 00:05:12;;;;;;;9.38;8.02;;;10.30;99.90;;;;;;5013441;28;20022;-65
2023/11/03 00:07:38;;;;;;;12.68;9.02;;;10.30;99.90;;;;;;5029722;28;20071;-65
2023/11/03 00:10:05;;;;;;;13.07;10.88;;;10.30;99.90;;;;;;5013369;28;20025;-65
2023/11/03 00:12:33;;;;;;;15.95;12.15;;;10.30;99.90;;;;;;5029718;28;20025;-65
2023/11/03 00:14:59;;;;;;;12.60;8.90;;;10.30;99.90;;;;;;5012453;28;20089;-65
2023/11/03 00:17:24;;;;;;;11.57;9.60;;;10.30;99.90;;;;;;5028183;28;20374;-65
2023/11/03 00:19:50;;;;;;;16.00;10.20;;;10.30;99.90;;;;;;5013771;28;20030;-65
2023/11/03 00:22:15;;;;;;;14.63;9.88;;;10.30;99.90;;;;;;5029359;28;20497;-65
2023/11/03 00:24:42;;;;;;;10.85;9.45;;;10.30;99.90;;;;;;5027495;28;20022;-65
2023/11/03 00:27:07;;;;;;;14.00;9.35;;;10.20;99.90;;;;;;5029162;28;20021;-65
2023/11/03 00:29:33;;;;;;;18.10;9.70;;;10.20;99.90;;;;;;5009625;28;20335;-66
2023/11/03 00:31:58;;;;;;;15.93;11.68;;;10.20;99.90;;;;;;5026961;28;20029;-65
2023/11/03 00:34:24;;;;;;;18.30;10.32;;;10.20;99.90;;;;;;5009798;28;20038;-65
2023/11/03 00:36:49;;;;;;;15.05;10.35;;;10.20;99.90;;;;;;5023939;28;20030;-66
2023/11/03 00:39:18;;;;;;;12.43;10.05;;;10.10;99.90;;;;;;5009858;28;20490;-65
2023/11/03 00:41:46;;;;;;;14.70;11.02;;;10.10;99.90;;;;;;5028452;28;20025;-65
2023/11/03 00:44:12;;;;;;;12.52;10.48;;;10.10;99.90;;;;;;5028725;28;20041;-65
2023/11/03 00:46:38;;;;;;;12.55;9.98;;;10.10;99.90;;;;;;5025841;28;20521;-66
2023/11/03 00:49:08;;;;;;;12.63;9.30;;;10.10;99.90;;;;;;5028828;28;20041;-66
2023/11/03 00:51:34;;;;;;;11.70;8.98;;;10.10;99.90;;;;;;5020994;28;20124;-66
2023/11/03 00:54:03;;;;;;;12.38;9.07;;;10.10;99.90;;;;;;5028502;28;20188;-65
2023/11/03 00:56:29;;;;;;;10.57;8.70;;;10.10;99.90;;;;;;5023540;28;20480;-66
2023/11/03 00:58:54;;;;;;;14.40;9.57;;;10.10;99.90;;;;;;5028631;28;20273;-65
2023/11/03 01:01:20;;;;;;;12.85;9.25;;;10.10;99.90;;;;;;5023523;28;20083;-66
2023/11/03 01:03:46;;;;;;;14.82;10.35;;;10.10;99.90;;;;;;5028588;28;20565;-66
2023/11/03 01:06:11;;;;;;;12.00;9.07;;;10.10;99.90;;;;;;5022100;28;20577;-65
2023/11/03 01:08:37;;;;;;;12.65;9.05;;;10.10;99.90;;;;;;5028681;28;20033;-65
2023/11/03 01:11:03;;;;;;;12.00;9.00;;;10.10;99.90;;;;;;5020973;28;20401;-65
2023/11/03 01:13:30;;;;;;;12.27;8.73;;;10.00;99.90;;;;;;5007925;28;20026;-65
2023/11/03 01:15:55;;;;;;;12.88;8.43;;;10.00;99.90;;;;;;5026339;28;20032;-65
2023/11/03 01:18:21;;;;;;;11.27;8.65;;;10.00;99.90;;;;;;5008028;28;20030;-65
2023/11/03 01:20:52;;;;;;;12.48;8.88;;;10.00;99.90;;;;;;5024752;28;20439;-65
2023/11/03 01:23:17;;;;;;;13.45;8.63;;;9.90;99.90;;;;;;4989433;28;20031;-65
2023/11/03 01:25:45;;;;;;;12.38;9.23;;;9.90;99.90;;;;;;5027040;28;20025;-65
2023/11/03 01:28:12;;;;;;;14.20;9.40;;;9.90;99.90;;;;;;5009064;28;20108;-65
2023/11/03 01:30:39;;;;;;;12.13;8.75;;;9.90;99.90;;;;;;5026465;28;20036;-65
2023/11/03 01:33:05;;;;;;;12.63;8.65;;;9.90;99.90;;;;;;5028667;28;20026;-66
2023/11/03 01:35:31;;;;;;;10.68;8.35;;;9.90;99.90;;;;;;5018238;28;20041;-66
2023/11/03 01:37:56;;;;;;;11.52;8.88;;;9.80;99.90;;;;;;5021567;28;20513;-64
2023/11/03 01:40:22;;;;;;;10.38;8.32;;;9.80;99.90;;;;;;5014829;28;20029;-66
2023/11/03 01:42:49;;;;;;;12.10;9.02;;;9.80;99.90;;;;;;5028641;28;20488;-65
2023/11/03 01:45:15;;;;;;;12.98;7.35;;;9.80;99.90;;;;;;5013631;28;20031;-65
2023/11/03 01:47:41;;;;;;;10.80;8.27;;;9.80;99.90;;;;;;5028399;28;20029;-65
2023/11/03 01:50:08;;;;;;;12.10;6.60;;;9.70;99.90;;;;;;5013682;28;20159;-65
2023/11/03 01:52:36;;;;;;;11.13;8.38;;;9.70;99.90;;;;;;5028193;28;20031;-66
2023/11/03 01:55:02;;;;;;;9.00;7.13;;;9.70;99.90;;;;;;5011694;28;20092;-66
2023/11/03 01:57:29;;;;;;;11.30;8.18;;;9.70;99.90;;;;;;5028137;28;20034;-65
2023/11/03 01:59:55;;;;;;;10.90;8.40;;;9.60;99.90;;;;;;5010733;28;20722;-65
2023/11/03 02:02:22;;;;;;;11.38;7.90;;;9.60;99.90;;;;;;5028210;28;20032;-65
2023/11/03 02:04:47;;;;;;;12.52;8.63;;;9.50;99.90;;;;;;5008274;28;20159;-64
2023/11/03 02:07:13;;;;;;;9.50;7.60;;;9.50;99.90;;;;;;5030861;28;20123;-64
2023/11/03 02:09:38;;;;;;;11.70;9.45;;;9.50;99.90;;;;;;5012454;28;20034;-66
2023/11/03 02:12:05;;;;;;;10.77;8.02;;;9.50;99.90;;;;;;5031804;28;20029;-65
2023/11/03 02:14:32;;;;;;;9.50;7.18;;;9.40;99.90;;;;;;5012156;28;20026;-65
2023/11/03 02:16:58;;;;;;;13.60;9.43;;;9.40;99.90;;;;;;5029652;28;20404;-65
2023/11/03 02:19:24;;;;;;;11.05;7.80;;;9.40;99.90;;;;;;5028012;28;20033;-65
2023/11/03 02:21:49;;;;;;;14.15;8.68;;;9.30;99.90;;;;;;5025288;28;20028;-65
2023/11/03 02:24:15;;;;;;;11.48;7.90;;;9.30;99.90;;;;;;5012203;28;20153;-65
2023/11/03 02:26:41;;;;;;;12.88;8.13;;;9.30;99.90;;;;;;5030507;28;20112;-66
2023/11/03 02:29:06;;;;;;;9.10;7.32;;;9.20;99.90;;;;;;5031092;28;20042;-66
2023/11/03 02:31:32;;;;;;;11.40;7.13;;;9.20;99.90;;;;;;5022027;28;20022;-65
2023/11/03 02:33:58;;;;;;;12.30;8.13;;;9.20;99.90;;;;;;5012065;28;20089;-66
2023/11/03 02:36:24;;;;;;;11.23;8.15;;;9.10;99.90;;;;;;5025346;28;20525;-65
2023/11/03 02:38:51;;;;;;;10.82;7.72;;;9.10;99.90;;;;;;5011795;28;20153;-65
2023/11/03 02:41:17;;;;;;;8.93;5.50;;;9.00;99.90;;;;;;5030552;28;20036;-65
2023/11/03 02:43:42;;;;;;;13.88;7.05;;;9.00;99.90;;;;;;5011856;28;20030;-66
2023/11/03 02:46:08;;;;;;;9.38;6.18;;;9.00;99.90;;;;;;5030045;28;20112;-65
2023/11/03 02:48:34;;;;;;;13.27;7.78;;;8.90;99.90;;;;;;5030923;28;20053;-65
2023/11/03 02:51:00;;;;;;;9.98;6.53;;;8.80;99.90;;;;;;5016895;28;20030;-66
2023/11/03 02:53:26;;;;;;;9.35;7.47;;;8.80;99.90;;;;;;5029604;28;20029;-66
2023/11/03 02:55:52;;;;;;;9.15;6.80;;;8.80;99.90;;;;;;5017468;28;20029;-66
2023/11/03 02:58:19;;;;;;;10.88;6.72;;;8.80;99.90;;;;;;5031106;28;20021;-65
2023/11/03 03:00:44;;;;;;;10.40;6.95;;;8.70;99.90;;;;;;5016072;28;20045;-65
2023/11/03 03:03:10;;;;;;;14.50;8.30;;;8.70;99.90;;;;;;5030866;28;20060;-66
2023/11/03 03:05:36;;;;;;;10.80;7.13;;;8.70;99.90;;;;;;5014845;28;20025;-65
2023/11/03 03:08:03;;;;;;;9.65;6.93;;;8.70;99.90;;;;;;5030774;28;20571;-66
2023/11/03 03:10:29;;;;;;;11.00;7.40;;;8.70;99.90;;;;;;5012481;28;20067;-65
2023/11/03 03:12:55;;;;;;;10.55;6.68;;;8.60;99.90;;;;;;5030644;28;20103;-66
2023/11/03 03:15:21;;;;;;;9.23;6.43;;;8.60;99.90;;;;;;5011531;28;20448;-65
2023/11/03 03:17:46;;;;;;;10.93;7.82;;;8.60;99.90;;;;;;5029967;28;20276;-65
2023/11/03 03:20:12;;;;;;;11.98;7.80;;;8.70;99.90;;;;;;5016715;28;20400;-65
2023/11/03 03:22:37;;;;;;;11.93;7.80;;;8.70;99.90;;;;;;5029040;28;20030;-65
2023/11/03 03:25:03;;;;;;;16.85;8.52;;;8.60;99.90;;;;;;5011016;28;20057;-66
2023/11/03 03:27:29;;;;;;;10.90;6.57;;;8.60;99.90;;;;;;5028180;28;20115;-66
2023/11/03 03:29:54;;;;;;;14.23;8.27;;;8.60;99.90;;;;;;5009650;28;20041;-66
2023/11/03 03:32:20;;;;;;;11.40;7.72;;;8.60;99.90;;;;;;5029465;28;20029;-66
2023/11/03 03:34:45;;;;;;;11.70;8.55;;;8.60;99.90;;;;;;5025171;28;20037;-65
2023/11/03 03:37:13;;;;;;;10.43;6.88;;;8.60;99.90;;;;;;5020955;28;20029;-65
2023/11/03 03:39:39;;;;;;;10.93;7.53;;;8.60;99.90;;;;;;5010553;28;20479;-63
2023/11/03 03:42:08;;;;;;;15.13;8.70;;;8.60;99.90;;;;;;5029406;28;20062;-67
2023/11/03 03:44:38;;;;;;;8.75;6.80;;;8.60;99.90;;;;;;5029867;28;20070;-68
2023/11/03 03:47:04;;;;;;;10.48;7.18;;;8.60;99.90;;;;;;5026208;28;20096;-69
2023/11/03 03:49:29;;;;;;;11.82;7.68;;;8.60;99.90;;;;;;5025011;28;20519;-67
2023/11/03 03:51:55;;;;;;;11.20;7.43;;;8.70;99.90;;;;;;5024472;28;20040;-67
2023/11/03 03:54:20;;;;;;;10.57;8.10;;;8.60;99.90;;;;;;5010595;28;20506;-68
2023/11/03 03:56:46;;;;;;;8.85;6.70;;;8.70;99.90;;;;;;5027144;28;20489;-67
2023/11/03 03:59:11;;;;;;;12.32;8.77;;;8.70;99.90;;;;;;5029495;28;20052;-68
2023/11/03 04:01:37;;;;;;;10.55;7.25;;;8.70;99.90;;;;;;5022522;28;20061;-67
2023/11/03 04:04:02;;;;;;;11.63;7.65;;;8.70;99.90;;;;;;5029528;28;20029;-69
2023/11/03 04:06:28;;;;;;;9.45;7.13;;;8.60;99.90;;;;;;5020806;28;20405;-67
2023/11/03 04:08:53;;;;;;;11.15;7.80;;;8.60;99.90;;;;;;5023090;28;20029;-67
2023/11/03 04:11:18;;;;;;;8.77;6.47;;;8.60;99.90;;;;;;5029448;28;20556;-67
2023/11/03 04:13:44;;;;;;;10.85;7.47;;;8.60;99.90;;;;;;5023665;28;20065;-67
2023/11/03 04:16:10;;;;;;;12.65;8.27;;;8.60;99.90;;;;;;5029230;28;20051;-68
2023/11/03 04:18:39;;;;;;;10.40;7.45;;;8.60;99.90;;;;;;5022112;28;20037;-67
2023/11/03 04:21:04;;;;;;;10.63;7.22;;;8.60;99.90;;;;;;5029253;28;20160;-67
2023/11/03 04:23:30;;;;;;;9.90;6.82;;;8.60;99.90;;;;;;5021461;28;20153;-67
2023/11/03 04:25:56;;;;;;;9.63;6.85;;;8.60;99.90;;;;;;5029314;28;20025;-67
2023/11/03 04:28:21;;;;;;;9.60;6.70;;;8.60;99.90;;;;;;5019969;28;20041;-67
2023/11/03 04:30:47;;;;;;;10.23;7.47;;;8.60;99.90;;;;;;5009884;28;20026;-67
2023/11/03 04:33:13;;;;;;;11.18;7.90;;;8.50;99.90;;;;;;5028016;28;20045;-67
2023/11/03 04:35:39;;;;;;;9.07;7.45;;;8.60;99.90;;;;;;5019087;28;20079;-64
2023/11/03 04:38:04;;;;;;;14.55;8.23;;;8.50;99.90;;;;;;5010669;28;20475;-68
2023/11/03 04:40:30;;;;;;;12.27;7.03;;;8.50;99.90;;;;;;5026926;28;20402;-67
2023/11/03 04:42:55;;;;;;;10.18;6.80;;;8.50;99.90;;;;;;5029025;28;20678;-68
2023/11/03 04:45:21;;;;;;;11.93;6.70;;;8.50;99.90;;;;;;5011886;28;20410;-67
2023/11/03 04:47:49;;;;;;;11.23;6.32;;;8.50;99.90;;;;;;5028879;28;20025;-67
2023/11/03 04:50:14;;;;;;;10.15;6.63;;;8.40;99.90;;;;;;5008969;28;20033;-66
2023/11/03 04:52:40;;;;;;;10.73;6.75;;;8.50;99.90;;;;;;5027548;28;20500;-66
2023/11/03 04:55:09;;;;;;;8.23;6.30;;;8.50;99.90;;;;;;5009479;28;20109;-66
2023/11/03 04:57:36;;;;;;;11.52;7.07;;;8.40;99.90;;;;;;4989645;28;20298;-67
2023/11/03 05:00:03;;;;;;;12.45;6.90;;;8.40;99.90;;;;;;5027879;28;20026;-68
2023/11/03 05:02:30;;;;;;;11.32;7.25;;;8.40;99.90;;;;;;5026991;28;20048;-67
2023/11/03 05:04:55;;;;;;;9.63;5.97;;;8.40;99.90;;;;;;5009219;28;20471;-67
2023/11/03 05:07:22;;;;;;;8.90;6.50;;;8.40;99.90;;;;;;5025867;28;20044;-67
2023/11/03 05:09:48;;;;;;;9.35;6.25;;;8.30;99.90;;;;;;5009273;28;20029;-67
2023/11/03 05:12:13;;;;;;;6.97;5.28;;;8.30;99.90;;;;;;5027545;28;20049;-68
2023/11/03 05:14:39;;;;;;;10.60;7.07;;;8.30;99.90;;;;;;5009300;28;20057;-67
2023/11/03 05:17:07;;;;;;;8.73;6.15;;;8.30;99.90;;;;;;5027616;28;20087;-68
2023/11/03 05:19:35;;;;;;;10.75;7.50;;;8.30;99.90;;;;;;5028579;28;20109;-67
2023/11/03 05:22:00;;;;;;;12.00;7.10;;;8.30;99.90;;;;;;5015699;28;20057;-67
2023/11/03 05:24:26;;;;;;;9.90;6.47;;;8.30;99.90;;;;;;5028477;28;20053;-67
2023/11/03 05:26:51;;;;;;;9.80;7.20;;;8.30;99.90;;;;;;5000490;28;20026;-69
2023/11/03 05:29:22;;;;;;;10.80;7.35;;;8.20;99.90;;;;;;5024905;28;20032;-66
2023/11/03 05:31:49;;;;;;;10.93;6.45;;;8.30;99.90;;;;;;4987920;28;20030;-66
2023/11/03 05:34:14;;;;;;;10.45;7.03;;;8.20;99.90;;;;;;5027332;28;20103;-66
2023/11/03 05:36:40;;;;;;;11.23;7.03;;;8.30;99.90;;;;;;5010054;28;20053;-67
2023/11/03 05:39:08;;;;;;;8.43;6.07;;;8.20;99.90;;;;;;5016606;28;20449;-67
2023/11/03 05:41:34;;;;;;;9.45;6.63;;;8.20;99.90;;;;;;5010875;28;20030;-66
2023/11/03 05:43:59;;;;;;;8.70;5.80;;;8.20;99.90;;;;;;5029804;28;20025;-68
2023/11/03 05:46:25;;;;;;;8.45;5.35;;;8.20;99.90;;;;;;5032428;28;20021;-67
2023/11/03 05:48:52;;;;;;;9.20;5.55;;;8.20;99.90;;;;;;5018356;28;20037;-67
2023/11/03 05:51:21;;;;;;;10.57;6.57;;;8.20;99.90;;;;;;5032462;28;20022;-68
2023/11/03 05:53:46;;;;;;;9.02;5.38;;;8.20;99.90;;;;;;5017210;28;20099;-67
2023/11/03 05:56:12;;;;;;;9.80;5.35;;;8.20;99.90;;;;;;5030763;28;20022;-66
2023/11/03 05:58:37;;;;;;;11.43;5.70;;;8.20;99.90;;;;;;5013439;28;20033;-67
2023/11/03 06:01:04;;;;;;;11.50;6.10;;;8.10;99.90;;;;;;5032096;28;20032;-67
2023/11/03 06:03:30;;;;;;;9.05;6.13;;;8.10;99.90;;;;;;5019525;28;20040;-67
2023/11/03 06:05:55;;;;;;;9.30;5.25;;;8.10;99.90;;;;;;5029767;28;20025;-67
2023/11/03 06:08:21;;;;;;;6.57;5.10;;;8.10;99.90;;;;;;5031778;28;20096;-67
2023/11/03 06:10:48;;;;;;;9.02;5.43;;;8.10;99.90;;;;;;5017360;28;20049;-67
2023/11/03 06:13:14;;;;;;;7.22;4.88;;;8.10;99.90;;;;;;5031519;28;20021;-67
2023/11/03 06:15:40;;;;;;;8.95;5.00;;;8.00;99.90;;;;;;5021931;28;20133;-66
2023/11/03 06:18:06;;;;;;;7.65;4.28;;;8.00;99.90;;;;;;5029388;28;20029;-67
2023/11/03 06:20:31;;;;;;;6.63;4.50;;;8.00;99.90;;;;;;5011935;28;20030;-67
2023/11/03 06:22:57;;;;;;;6.07;4.68;;;7.90;99.90;;;;;;5028549;28;20067;-67
2023/11/03 06:25:22;;;;;;;8.65;5.53;;;7.90;99.90;;;;;;5031341;28;20021;-67
2023/11/03 06:27:48;;;;;;;8.68;5.45;;;7.90;99.90;;;;;;5017627;28;20026;-68
2023/11/03 06:30:14;;;;;;;8.63;5.50;;;7.90;99.90;;;;;;5031356;28;20030;-67
2023/11/03 06:32:39;;;;;;;7.32;4.95;;;7.90;99.90;;;;;;5016350;28;20063;-67
2023/11/03 06:35:05;;;;;;;9.02;5.25;;;7.90;99.90;;;;;;5023257;28;20387;-65
2023/11/03 06:37:30;;;;;;;8.05;5.43;;;8.00;99.90;;;;;;5023838;28;20071;-67
2023/11/03 06:39:56;;;;;;;9.10;6.22;;;8.00;99.90;;;;;;5011752;28;20120;-67
2023/11/03 06:42:21;;;;;;;9.73;5.85;;;8.00;99.90;;;;;;5030198;28;20048;-67
2023/11/03 06:44:47;;;;;;;7.07;4.97;;;8.10;99.90;;;;;;5029488;28;20018;-67
2023/11/03 06:47:12;;;;;;;9.93;5.53;;;8.10;99.90;;;;;;5029212;28;20033;-67
2023/11/03 06:49:38;;;;;;;6.88;4.78;;;8.10;99.90;;;;;;5030822;28;20153;-67
2023/11/03 06:52:04;;;;;;;6.95;4.75;;;8.10;99.90;;;;;;5027434;28;20083;-67
2023/11/03 06:54:30;;;;;;;9.52;5.05;;;8.10;99.90;;;;;;5030035;28;20034;-67
2023/11/03 06:56:55;;;;;;;6.72;4.80;;;8.10;99.90;;;;;;5023077;28;20022;-67
2023/11/03 06:59:21;;;;;;;8.73;4.72;;;8.20;99.90;;;;;;5030855;28;20030;-67
2023/11/03 07:01:46;;;;;;;6.75;4.53;;;8.30;99.90;;;;;;5014973;28;20079;-67
2023/11/03 07:04:14;;;;;;;11.45;3.90;;;8.30;99.90;;;;;;5027388;28;20034;-67
2023/11/03 07:06:39;;;;;;;8.05;4.78;;;8.30;99.90;;;;;;5030663;28;20071;-67
2023/11/03 07:09:05;;;;;;;6.00;4.43;;;8.30;99.90;;;;;;5011375;28;20135;-66
2023/11/03 07:11:30;;;;;;;9.70;4.55;;;8.40;99.90;;;;;;5030210;28;20094;-66
2023/11/03 07:13:57;;;;;;;8.27;3.78;;;8.40;99.90;;;;;;5011126;28;20036;-68
2023/11/03 07:16:22;;;;;;;6.00;4.22;;;8.50;99.90;;;;;;5027684;28;20370;-67
2023/11/03 07:18:48;;;;;;;10.27;4.70;;;8.40;99.90;;;;;;5030172;28;20090;-68
2023/11/03 07:21:13;;;;;;;5.03;3.47;;;8.50;99.90;;;;;;5022393;28;20144;-68
2023/11/03 07:23:40;;;;;;;7.28;3.33;;;8.50;99.90;;;;;;5028701;28;20025;-67
2023/11/03 07:26:05;;;;;;;6.15;3.60;;;8.60;99.90;;;;;;5019764;28;20026;-67
2023/11/03 07:28:31;;;;;;;6.05;2.97;;;8.60;99.90;;;;;;5010668;28;20034;-67
2023/11/03 07:30:57;;;;;;;7.07;2.92;;;8.60;99.90;;;;;;5029012;28;20116;-67
2023/11/03 07:33:23;;;;;;;8.50;3.13;;;8.60;99.90;;;;;;5028128;28;20521;-67
2023/11/03 07:35:49;;;;;;;5.85;2.60;;;8.60;99.90;;;;;;5018972;28;20049;-66
2023/11/03 07:38:15;;;;;;;3.70;2.70;;;8.60;99.90;;;;;;5021323;28;20033;-66
2023/11/03 07:40:40;;;;;;;5.68;2.42;;;8.50;99.90;;;;;;5029860;28;20021;-66
2023/11/03 07:43:06;;;;;;;5.15;2.83;;;8.50;99.90;;;;;;5027766;28;20033;-66
2023/11/03 07:45:33;;;;;;;3.80;2.53;;;8.50;99.90;;;;;;5029776;28;20084;-66
2023/11/03 07:47:59;;;;;;;5.10;2.80;;;8.50;99.90;;;;;;5025644;28;20029;-66
2023/11/03 07:50:25;;;;;;;5.03;2.60;;;8.50;99.90;;;;;;5029560;28;20068;-67
2023/11/03 07:52:51;;;;;;;4.55;2.38;;;8.50;99.90;;;;;;5022576;28;20053;-67
2023/11/03 07:55:17;;;;;;;8.23;2.78;;;8.50;99.90;;;;;;5010308;28;20034;-67
2023/11/03 07:57:43;;;;;;;4.25;2.70;;;8.50;99.90;;;;;;5028379;28;20501;-67
2023/11/03 08:00:09;;;;;;;5.18;2.50;;;8.50;99.90;;;;;;5029520;28;20500;-67
2023/11/03 08:02:37;;;;;;;4.50;2.45;;;8.60;99.90;;;;;;5016200;28;20021;-67
2023/11/03 08:05:03;;;;;;;4.82;3.03;;;8.70;99.90;;;;;;5029447;28;20111;-67
2023/11/03 08:07:29;;;;;;;9.27;3.20;;;8.70;99.90;;;;;;5015110;28;20028;-66
2023/11/03 08:09:55;;;;;;;6.25;3.03;;;8.80;99.90;;;;;;5017043;28;20030;-67
2023/11/03 08:12:20;;;;;;;9.13;2.78;;;8.80;99.90;;;;;;5026635;28;20060;-67
2023/11/03 08:14:46;;;;;;;3.55;1.90;;;8.80;99.90;;;;;;5029559;28;20117;-67
2023/11/03 08:17:11;;;;;;;5.13;2.42;;;8.80;99.90;;;;;;5012880;28;20025;-67
2023/11/03 08:19:41;;;;;;;4.45;2.33;;;8.90;99.90;;;;;;5027879;28;20053;-66
2023/11/03 08:22:07;;;;;;;6.72;2.53;;;9.00;99.90;;;;;;5009513;28;20042;-66
2023/11/03 08:24:33;;;;;;;3.72;1.77;;;9.00;99.90;;;;;;5028768;28;20102;-66
2023/11/03 08:26:59;;;;;;;6.97;1.92;;;9.10;99.90;;;;;;5023459;28;20033;-67
2023/11/03 08:29:24;;;;;;;5.88;2.22;;;9.10;99.90;;;;;;5020840;28;20124;-67
2023/11/03 08:31:51;;;;;;;4.32;1.98;;;9.20;99.90;;;;;;5027822;28;20113;-67
2023/11/03 08:34:16;;;;;;;4.35;1.90;;;9.20;99.90;;;;;;5026899;28;20432;-67
2023/11/03 08:36:41;;;;;;;2.70;1.60;;;9.20;99.90;;;;;;5018876;28;20288;-67
2023/11/03 08:39:08;;;;;;;4.95;1.92;;;9.20;99.90;;;;;;5028809;28;20044;-67
2023/11/03 08:41:33;;;;;;;6.32;1.80;;;9.30;99.90;;;;;;5015339;28;20045;-67
2023/11/03 08:44:00;;;;;;;3.88;1.88;;;9.40;99.90;;;;;;5028828;28;20059;-67
2023/11/03 08:46:25;;;;;;;4.55;2.30;;;9.50;99.90;;;;;;5014247;28;20022;-67
2023/11/03 08:48:51;;;;;;;6.70;2.35;;;9.60;99.90;;;;;;5028415;28;20034;-67
2023/11/03 08:51:17;;;;;;;6.15;2.10;;;9.60;99.90;;;;;;5011322;28;20033;-67
2023/11/03 08:53:44;;;;;;;4.88;2.22;;;9.70;99.90;;;;;;5028945;28;20021;-67
2023/11/03 08:56:12;;;;;;;6.80;2.53;;;9.70;99.90;;;;;;5011732;28;20033;-67
2023/11/03 08:58:39;;;;;;;7.70;2.47;;;9.70;99.90;;;;;;5028671;28;20024;-67
2023/11/03 09:01:06;;;;;;;4.22;2.28;;;9.80;99.90;;;;;;5011010;28;20052;-67
2023/11/03 09:03:32;;;;;;;5.38;2.35;;;9.80;99.90;;;;;;5028495;28;20021;-67
2023/11/03 09:05:59;;;;;;;4.57;2.30;;;9.90;99.90;;;;;;5008478;28;20091;-67
2023/11/03 09:08:24;;;;;;;3.33;2.40;;;10.00;99.90;;;;;;5027214;28;20536;-67
2023/11/03 09:10:50;;;;;;;4.82;2.58;;;10.00;99.90;;;;;;5009234;28;20228;-67
2023/11/03 09:13:16;;;;;;;4.10;2.00;;;10.10;99.90;;;;;;5028425;28;20032;-67
2023/11/03 09:15:44;;;;;;;6.22;2.20;;;10.10;99.90;;;;;;5008229;28;20042;-67
2023/11/03 09:18:10;;;;;;;6.13;2.00;;;10.20;99.90;;;;;;5027837;28;20029;-67
2023/11/03 09:20:37;;;;;;;4.82;2.13;;;10.20;99.90;;;;;;5028352;28;20040;-67
2023/11/03 09:23:02;;;;;;;5.82;1.83;;;10.20;99.90;;;;;;5027206;28;20071;-67
2023/11/03 09:25:29;;;;;;;4.45;1.95;;;10.30;99.90;;;;;;5028204;28;20037;-66
2023/11/03 09:27:55;;;;;;;2.65;1.90;;;10.30;99.90;;;;;;5025755;28;20029;-67
2023/11/03 09:30:22;;;;;;;4.32;2.05;;;10.30;99.90;;;;;;5027994;28;20413;-66
2023/11/03 09:32:48;;;;;;;3.80;1.50;;;10.30;99.90;;;;;;5024586;28;20084;-66
2023/11/03 09:35:14;;;;;;;4.70;1.92;;;10.40;99.90;;;;;;5026016;28;20528;-66
2023/11/03 09:37:40;;;;;;;6.18;2.33;;;10.40;99.90;;;;;;5006722;28;20038;-66
2023/11/03 09:40:07;;;;;;;4.13;1.90;;;10.40;99.90;;;;;;5027366;28;20393;-66
2023/11/03 09:42:33;;;;;;;3.38;1.58;;;10.40;99.90;;;;;;5027943;28;20108;-64
2023/11/03 09:44:59;;;;;;;5.15;1.75;;;10.40;99.90;;;;;;5024695;28;20108;-71
2023/11/03 09:47:25;;;;;;;4.05;1.65;;;10.40;99.90;;;;;;5028319;28;20018;-66
2023/11/03 09:49:51;;;;;;;2.80;1.77;;;10.40;99.90;;;;;;5023194;28;20239;-66
2023/11/03 09:52:20;;;;;;;2.70;1.60;;;10.50;99.90;;;;;;5026766;28;20040;-66
2023/11/03 09:54:46;;;;;;;4.18;1.52;;;10.50;99.90;;;;;;5022457;28;20060;-66
2023/11/03 09:57:13;;;;;;;8.50;1.80;;;10.50;99.90;;;;;;5027920;28;20025;-67
2023/11/03 09:59:40;;;;;;;3.17;1.65;;;10.60;99.90;;;;;;5021466;28;20033;-66
2023/11/03 10:02:17;;;;;;;4.40;1.70;;;10.60;99.90;;;;;;5027939;28;20049;-66
2023/11/03 10:04:42;;;;;;;6.03;1.45;;;10.60;99.90;;;;;;5013621;28;20033;-66
2023/11/03 10:07:10;;;;;;;4.57;1.58;;;10.70;99.90;;;;;;5027947;28;20409;-67
2023/11/03 10:09:36;;;;;;;2.65;1.70;;;10.70;99.90;;;;;;5020678;28;20030;-66
2023/11/03 10:12:03;;;;;;;2.13;1.05;;;10.70;99.90;;;;;;5027821;28;20370;-67
2023/11/03 10:14:30;;;;;;;3.55;1.40;;;10.80;99.90;;;;;;5019840;28;20138;-66
2023/11/03 10:16:58;;;;;;;5.53;1.80;;;10.80;99.90;;;;;;5008614;28;20044;-66
2023/11/03 10:19:25;;;;;;;7.57;1.77;;;10.80;99.90;;;;;;5026873;28;20033;-66
2023/11/03 10:21:51;;;;;;;7.65;1.80;;;10.90;99.90;;;;;;5008428;28;20022;-66
2023/11/03 10:24:17;;;;;;;3.45;1.40;;;10.80;99.90;;;;;;5027048;28;20375;-66
2023/11/03 10:26:43;;;;;;;6.05;1.60;;;10.80;99.90;;;;;;5008588;28;20032;-67
2023/11/03 10:29:12;;;;;;;5.72;1.30;;;10.80;99.90;;;;;;5030399;28;20040;-67
2023/11/03 10:31:39;;;;;;;7.22;1.73;;;10.80;99.90;;;;;;5010312;28;20584;-67
2023/11/03 10:34:04;;;;;;;4.45;1.33;;;10.80;99.90;;;;;;5028710;28;20025;-67
2023/11/03 10:36:31;;;;;;;4.18;1.42;;;10.80;99.90;;;;;;5016603;28;20779;-66
2023/11/03 10:38:57;;;;;;;2.33;1.15;;;10.80;99.90;;;;;;5029473;28;20576;-67
2023/11/03 10:41:24;;;;;;;6.15;1.77;;;10.80;99.90;;;;;;5031188;28;20026;-66
2023/11/03 10:43:58;;;;;;;4.25;1.67;;;10.70;99.90;;;;;;5016179;28;20025;-66
2023/11/03 10:46:39;;;;;;;5.38;1.33;;;10.70;99.90;;;;;;5031284;28;20025;-66
2023/11/03 10:49:31;;;;;;;6.35;1.52;;;10.70;99.90;;;;;;5006687;28;20041;-67
2023/11/03 10:52:28;;;;;;;5.40;1.52;;;10.60;99.90;;;;;;4990475;28;20034;-66
2023/11/03 10:55:13;;;;;;;8.30;1.60;;;10.70;99.90;;;;;;5020084;28;20481;-66
2023/11/03 10:57:38;;;;;;;2.22;1.40;;;10.60;99.90;;;;;;4990217;28;20339;-66
2023/11/03 11:00:33;;;;;;;4.63;1.88;;;10.60;99.90;;;;;;5029266;28;20509;-66
2023/11/03 11:03:14;;;;;;;2.75;1.45;;;10.60;99.90;;;;;;4991531;28;20034;-66
2023/11/03 11:05:53;;;;;;;3.50;1.45;;;10.70;99.90;;;;;;4991590;28;20325;-67
2023/11/03 11:08:19;;;;;;;4.35;1.65;;;10.60;99.90;;;;;;4994680;28;20092;-65
2023/11/03 11:10:46;;;;;;;2.83;1.40;;;10.70;99.90;;;;;;5030494;28;20469;-66
2023/11/03 11:13:19;;;;;;;3.30;1.88;;;10.60;99.90;;;;;;5011807;28;20096;-66
2023/11/03 11:15:56;;;;;;;5.65;1.67;;;10.60;99.90;;;;;;5030491;28;20028;-66
2023/11/03 11:18:28;;;;;;;3.05;1.40;;;10.60;99.90;;;;;;5012011;28;20188;-66
2023/11/03 11:20:56;;;;;;;3.67;1.80;;;10.60;99.90;;;;;;5030469;28;20025;-66
2023/11/03 11:23:23;;;;;;;5.13;1.98;;;10.60;99.90;;;;;;5012860;28;20117;-66
2023/11/03 11:25:52;;;;;;;6.55;1.85;;;10.60;99.90;;;;;;5030141;28;20033;-67
2023/11/03 11:28:40;;;;;;;3.95;1.30;;;10.60;99.90;;;;;;5011923;28;20046;-67
2023/11/03 11:31:36;;;;;;;6.10;1.67;;;10.60;99.90;;;;;;5028795;28;20105;-67
2023/11/03 11:34:05;;;;;;;2.97;1.58;;;10.60;99.90;;;;;;5004360;28;20057;-66
2023/11/03 11:36:33;;;;;;;4.28;1.50;;;10.60;99.90;;;;;;5013090;28;20037;-67
2023/11/03 11:39:13;;;;;;;4.68;1.30;;;10.60;99.90;;;;;;5028966;28;20359;-67
2023/11/03 11:41:48;;;;;;;2.45;1.35;;;10.70;99.90;;;;;;5028613;28;20241;-66
2023/11/03 11:44:18;;;;;;;6.65;1.60;;;10.70;99.90;;;;;;5009370;28;20036;-67
2023/11/03 11:46:54;;;;;;;11.27;6.18;;;10.70;99.90;;;;;;4990602;28;20049;-66
2023/11/03 11:49:23;;;;;;;;;;;10.60;99.90;;;;;;5011306;28;20025;-67
2023/11/03 11:51:51;;;;;;;6.43;4.07;;;10.60;99.90;;;;;;5010002;28;20292;-66
2023/11/03 11:54:21;;;;;;;8.00;3.40;;;10.60;99.90;;;;;;5028839;28;20037;-66
2023/11/03 11:56:48;;;;;;;4.75;2.40;;;10.60;99.90;;;;;;5010060;28;20505;-66
2023/11/03 11:59:20;;;;;;;6.75;2.47;;;10.60;99.90;;;;;;5028898;28;20030;-66
2023/11/03 12:01:47;;;;;;;6.60;2.60;;;10.70;99.90;;;;;;5010021;28;20520;-66
2023/11/03 12:04:16;;;;;;;7.90;2.33;;;10.70;99.90;;;;;;5027049;28;20059;-67
2023/11/03 12:06:43;;;;;;;5.10;1.88;;;10.70;99.90;;;;;;5009570;28;20041;-67
2023/11/03 12:09:09;;;;;;;3.92;1.83;;;10.80;99.90;;;;;;5028502;28;20036;-67
2023/11/03 12:11:37;;;;;;;2.28;1.35;;;10.80;99.90;;;;;;5009991;28;20029;-67
2023/11/03 12:14:03;;;;;;;2.85;1.27;;;10.80;99.90;;;;;;5028554;28;20022;-66
2023/11/03 12:16:29;;;;;;;3.00;1.52;;;10.80;99.90;;;;;;5029295;28;20018;-66
2023/11/03 12:18:55;;;;;;;6.85;1.73;;;10.80;99.90;;;;;;5016434;28;20029;-66
2023/11/03 12:21:23;;;;;;;4.10;1.00;;;10.80;99.90;;;;;;5029330;28;20406;-67
2023/11/03 12:23:50;;;;;;;2.40;1.40;;;10.80;99.90;;;;;;5015219;28;20044;-66
2023/11/03 12:26:16;;;;;;;6.72;1.45;;;10.80;99.90;;;;;;5029179;28;20014;-66
2023/11/03 12:28:44;;;;;;;3.85;1.60;;;10.80;99.90;;;;;;5014554;28;20033;-67
2023/11/03 12:31:10;;;;;;;3.08;1.35;;;10.80;99.90;;;;;;5029101;28;20306;-67
2023/11/03 12:33:36;;;;;;;6.32;1.25;;;10.80;99.90;;;;;;5012083;28;20060;-66
2023/11/03 12:36:02;;;;;;;3.20;1.00;;;10.90;99.90;;;;;;5020438;28;20038;-66
2023/11/03 12:38:29;;;;;;;6.60;2.00;;;10.90;99.90;;;;;;5010782;28;20022;-67
2023/11/03 12:41:13;;;;;;;6.35;1.38;;;10.90;99.90;;;;;;5029149;28;20014;-66
2023/11/03 12:43:40;;;;;;;3.85;1.38;;;10.90;99.90;;;;;;4998644;28;20024;-66
2023/11/03 12:46:08;;;;;;;4.45;1.65;;;11.00;99.90;;;;;;5028852;28;20029;-66